sensor_id;sensor_type;location;lat;lon;timestamp;temperature;humidity
16523;DHT22;19889;52.546;13.348;2022-10-10T00:00:53;12.80;99.90
16523;DHT22;19889;52.546;13.348;2022-10-10T00:03:20;12.80;99.90
16523;DHT22;19889;52.546;13.348;2022-10-10T00:05:47;12.70;99.90
16523;DHT22;19889;52.546;13.348;2022-10-10T00:08:13;12.80;99.90
16523;DHT22;19889;52.546;13.348;2022-10-10T00:10:41;12.80;99.90
16523;DHT22;19889;52.546;13.348;2022-10-10T00:13:08;12.70;99.90
16523;DHT22;19889;52.546;13.348;2022-10-10T00:15:35;12.70;99.90
16523;DHT22;19889;52.546;13.348;2022-10-10T00:18:02;12.70;99.90
16523;DHT22;19889;52.546;13.348;2022-10-10T00:20:29;12.70;99.90
16523;DHT22;19889;52.546;13.348;2022-10-10T00:22:56;12.70;99.90
16523;DHT22;19889;52.546;13.348;2022-10-10T00:25:23;12.70;99.90
16523;DHT22;19889;52.546;13.348;2022-10-10T00:27:51;12.60;99.90
16523;DHT22;19889;52.546;13.348;2022-10-10T00:30:18;12.60;99.90
16523;DHT22;19889;52.546;13.348;2022-10-10T00:32:45;12.60;99.90
16523;DHT22;19889;52.546;13.348;2022-10-10T00:35:12;12.60;99.90
16523;DHT22;19889;52.546;13.348;2022-10-10T00:37:39;12.60;99.90
16523;DHT22;19889;52.546;13.348;2022-10-10T00:40:06;12.60;99.90
16523;DHT22;19889;52.546;13.348;2022-10-10T00:42:34;12.50;99.90
16523;DHT22;19889;52.546;13.348;2022-10-10T00:45:26;12.50;99.90
16523;DHT22;19889;52.546;13.348;2022-10-10T00:47:57;12.50;99.90
16523;DHT22;19889;52.546;13.348;2022-10-10T00:50:25;12.50;99.90
16523;DHT22;19889;52.546;13.348;2022-10-10T00:52:52;12.50;99.90
16523;DHT22;19889;52.546;13.348;2022-10-10T00:55:20;12.50;99.90
16523;DHT22;19889;52.546;13.348;2022-10-10T00:57:47;12.50;99.90
16523;DHT22;19889;52.546;13.348;2022-10-10T01:00:15;12.50;99.90
16523;DHT22;19889;52.546;13.348;2022-10-10T01:02:43;12.40;99.90
16523;DHT22;19889;52.546;13.348;2022-10-10T01:05:09;12.40;99.90
16523;DHT22;19889;52.546;13.348;2022-10-10T01:07:37;12.50;99.90
16523;DHT22;19889;52.546;13.348;2022-10-10T01:10:06;12.40;99.90
16523;DHT22;19889;52.546;13.348;2022-10-10T01:12:44;12.40;99.90
16523;DHT22;19889;52.546;13.348;2022-10-10T01:15:18;12.40;99.90
16523;DHT22;19889;52.546;13.348;2022-10-10T01:17:52;12.40;99.90
16523;DHT22;19889;52.546;13.348;2022-10-10T01:20:44;12.40;99.90
16523;DHT22;19889;52.546;13.348;2022-10-10T01:23:27;12.40;99.90
16523;DHT22;19889;52.546;13.348;2022-10-10T01:26:08;12.40;99.90
16523;DHT22;19889;52.546;13.348;2022-10-10T01:28:44;12.40;99.90
16523;DHT22;19889;52.546;13.348;2022-10-10T01:31:15;12.40;99.90
16523;DHT22;19889;52.546;13.348;2022-10-10T01:33:52;12.30;99.90
16523;DHT22;19889;52.546;13.348;2022-10-10T01:36:28;12.30;99.90
16523;DHT22;19889;52.546;13.348;2022-10-10T01:39:03;12.30;99.90
16523;DHT22;19889;52.546;13.348;2022-10-10T01:41:33;12.30;99.90
16523;DHT22;19889;52.546;13.348;2022-10-10T01:44:04;12.30;99.90
16523;DHT22;19889;52.546;13.348;2022-10-10T01:46:31;12.30;99.90
16523;DHT22;19889;52.546;13.348;2022-10-10T01:48:59;12.30;99.90
16523;DHT22;19889;52.546;13.348;2022-10-10T01:51:39;12.20;99.90
16523;DHT22;19889;52.546;13.348;2022-10-10T01:54:20;12.30;99.90
16523;DHT22;19889;52.546;13.348;2022-10-10T01:56:57;12.20;99.90
16523;DHT22;19889;52.546;13.348;2022-10-10T01:59:38;12.20;99.90
16523;DHT22;19889;52.546;13.348;2022-10-10T02:02:13;12.20;99.90
16523;DHT22;19889;52.546;13.348;2022-10-10T02:04:46;12.20;99.90
16523;DHT22;19889;52.546;13.348;2022-10-10T02:07:20;12.20;99.90
16523;DHT22;19889;52.546;13.348;2022-10-10T02:09:48;12.20;99.90
16523;DHT22;19889;52.546;13.348;2022-10-10T02:12:18;12.20;99.90
16523;DHT22;19889;52.546;13.348;2022-10-10T02:14:50;12.20;99.90
16523;DHT22;19889;52.546;13.348;2022-10-10T02:17:20;12.20;99.90
16523;DHT22;19889;52.546;13.348;2022-10-10T02:19:52;12.10;99.90
16523;DHT22;19889;52.546;13.348;2022-10-10T02:22:20;12.10;99.90
16523;DHT22;19889;52.546;13.348;2022-10-10T02:24:49;12.10;99.90
16523;DHT22;19889;52.546;13.348;2022-10-10T02:27:20;12.10;99.90
16523;DHT22;19889;52.546;13.348;2022-10-10T02:29:52;12.10;99.90
16523;DHT22;19889;52.546;13.348;2022-10-10T02:32:21;13.90;99.90
16523;DHT22;19889;52.546;13.348;2022-10-10T02:34:52;12.00;99.90
16523;DHT22;19889;52.546;13.348;2022-10-10T02:37:21;12.00;99.90
16523;DHT22;19889;52.546;13.348;2022-10-10T02:39:51;12.10;99.90
16523;DHT22;19889;52.546;13.348;2022-10-10T02:42:21;12.10;99.90
16523;DHT22;19889;52.546;13.348;2022-10-10T02:44:51;11.90;99.90
16523;DHT22;19889;52.546;13.348;2022-10-10T02:47:17;12.10;99.90
16523;DHT22;19889;52.546;13.348;2022-10-10T02:49:44;12.00;99.90
16523;DHT22;19889;52.546;13.348;2022-10-10T02:52:13;12.00;99.90
16523;DHT22;19889;52.546;13.348;2022-10-10T02:54:40;12.00;99.90
16523;DHT22;19889;52.546;13.348;2022-10-10T02:57:07;12.00;99.90
16523;DHT22;19889;52.546;13.348;2022-10-10T02:59:34;12.00;99.90
16523;DHT22;19889;52.546;13.348;2022-10-10T03:02:02;11.90;99.90
16523;DHT22;19889;52.546;13.348;2022-10-10T03:04:29;11.90;99.90
16523;DHT22;19889;52.546;13.348;2022-10-10T03:06:56;11.90;99.90
16523;DHT22;19889;52.546;13.348;2022-10-10T03:09:22;11.90;99.90
16523;DHT22;19889;52.546;13.348;2022-10-10T03:11:49;11.90;99.90
16523;DHT22;19889;52.546;13.348;2022-10-10T03:14:16;11.90;99.90
16523;DHT22;19889;52.546;13.348;2022-10-10T03:16:42;11.90;99.90
16523;DHT22;19889;52.546;13.348;2022-10-10T03:19:11;11.90;99.90
16523;DHT22;19889;52.546;13.348;2022-10-10T03:21:37;13.60;99.90
16523;DHT22;19889;52.546;13.348;2022-10-10T03:24:04;11.80;99.90
16523;DHT22;19889;52.546;13.348;2022-10-10T03:26:31;11.90;99.90
16523;DHT22;19889;52.546;13.348;2022-10-10T03:29:00;11.90;99.90
16523;DHT22;19889;52.546;13.348;2022-10-10T03:31:27;11.90;99.90
16523;DHT22;19889;52.546;13.348;2022-10-10T03:33:53;11.80;99.90
16523;DHT22;19889;52.546;13.348;2022-10-10T03:36:21;11.80;99.90
16523;DHT22;19889;52.546;13.348;2022-10-10T03:38:48;11.80;99.90
16523;DHT22;19889;52.546;13.348;2022-10-10T03:41:15;11.80;99.90
16523;DHT22;19889;52.546;13.348;2022-10-10T03:43:42;11.80;99.90
16523;DHT22;19889;52.546;13.348;2022-10-10T03:46:08;11.80;99.90
16523;DHT22;19889;52.546;13.348;2022-10-10T03:48:35;11.70;99.90
16523;DHT22;19889;52.546;13.348;2022-10-10T03:51:02;11.70;99.90
16523;DHT22;19889;52.546;13.348;2022-10-10T03:53:30;11.70;99.90
16523;DHT22;19889;52.546;13.348;2022-10-10T03:55:57;11.70;99.90
16523;DHT22;19889;52.546;13.348;2022-10-10T03:58:24;11.70;99.90
16523;DHT22;19889;52.546;13.348;2022-10-10T04:00:53;11.70;99.90
16523;DHT22;19889;52.546;13.348;2022-10-10T04:03:20;11.60;99.90
16523;DHT22;19889;52.546;13.348;2022-10-10T04:05:47;11.60;99.90
16523;DHT22;19889;52.546;13.348;2022-10-10T04:08:13;11.60;99.90
16523;DHT22;19889;52.546;13.348;2022-10-10T04:10:42;11.60;99.90
16523;DHT22;19889;52.546;13.348;2022-10-10T04:13:09;11.60;99.90
16523;DHT22;19889;52.546;13.348;2022-10-10T04:15:36;11.60;99.90
16523;DHT22;19889;52.546;13.348;2022-10-10T04:18:03;11.60;99.90
16523;DHT22;19889;52.546;13.348;2022-10-10T04:20:31;11.60;99.90
16523;DHT22;19889;52.546;13.348;2022-10-10T04:22:58;11.60;99.90
16523;DHT22;19889;52.546;13.348;2022-10-10T04:25:24;11.50;99.90
16523;DHT22;19889;52.546;13.348;2022-10-10T04:27:53;11.50;99.90
16523;DHT22;19889;52.546;13.348;2022-10-10T04:30:19;11.60;99.90
16523;DHT22;19889;52.546;13.348;2022-10-10T04:32:46;11.60;99.90
16523;DHT22;19889;52.546;13.348;2022-10-10T04:35:13;11.60;99.90
16523;DHT22;19889;52.546;13.348;2022-10-10T04:37:40;11.50;99.90
16523;DHT22;19889;52.546;13.348;2022-10-10T04:40:08;11.50;99.90
16523;DHT22;19889;52.546;13.348;2022-10-10T04:42:34;11.50;99.90
16523;DHT22;19889;52.546;13.348;2022-10-10T04:45:03;11.50;99.90
16523;DHT22;19889;52.546;13.348;2022-10-10T04:47:31;11.50;99.90
16523;DHT22;19889;52.546;13.348;2022-10-10T04:49:58;11.50;99.90
16523;DHT22;19889;52.546;13.348;2022-10-10T04:52:25;11.50;99.90
16523;DHT22;19889;52.546;13.348;2022-10-10T04:54:51;11.50;99.90
16523;DHT22;19889;52.546;13.348;2022-10-10T04:57:18;11.50;99.90
16523;DHT22;19889;52.546;13.348;2022-10-10T04:59:45;11.50;99.90
16523;DHT22;19889;52.546;13.348;2022-10-10T05:02:13;11.50;99.90
16523;DHT22;19889;52.546;13.348;2022-10-10T05:04:40;11.40;99.90
16523;DHT22;19889;52.546;13.348;2022-10-10T05:07:06;11.40;99.90
16523;DHT22;19889;52.546;13.348;2022-10-10T05:09:33;11.40;99.90
16523;DHT22;19889;52.546;13.348;2022-10-10T05:12:00;11.40;99.90
16523;DHT22;19889;52.546;13.348;2022-10-10T05:14:27;11.30;99.90
16523;DHT22;19889;52.546;13.348;2022-10-10T05:16:54;11.30;99.90
16523;DHT22;19889;52.546;13.348;2022-10-10T05:19:22;11.20;99.90
16523;DHT22;19889;52.546;13.348;2022-10-10T05:21:49;11.30;99.90
16523;DHT22;19889;52.546;13.348;2022-10-10T05:24:15;11.30;99.90
16523;DHT22;19889;52.546;13.348;2022-10-10T05:26:42;11.30;99.90
16523;DHT22;19889;52.546;13.348;2022-10-10T05:29:09;11.30;99.90
16523;DHT22;19889;52.546;13.348;2022-10-10T05:31:35;11.30;99.90
16523;DHT22;19889;52.546;13.348;2022-10-10T05:34:02;11.30;99.90
16523;DHT22;19889;52.546;13.348;2022-10-10T05:36:30;11.30;99.90
16523;DHT22;19889;52.546;13.348;2022-10-10T05:38:57;11.30;99.90
16523;DHT22;19889;52.546;13.348;2022-10-10T05:41:26;11.30;99.90
16523;DHT22;19889;52.546;13.348;2022-10-10T05:43:53;11.30;99.90
16523;DHT22;19889;52.546;13.348;2022-10-10T05:46:19;11.30;99.90
16523;DHT22;19889;52.546;13.348;2022-10-10T05:48:47;11.20;99.90
16523;DHT22;19889;52.546;13.348;2022-10-10T05:51:14;11.30;99.90
16523;DHT22;19889;52.546;13.348;2022-10-10T05:53:42;11.20;99.90
16523;DHT22;19889;52.546;13.348;2022-10-10T05:56:09;11.20;99.90
16523;DHT22;19889;52.546;13.348;2022-10-10T05:58:36;11.20;99.90
16523;DHT22;19889;52.546;13.348;2022-10-10T06:01:05;11.20;99.90
16523;DHT22;19889;52.546;13.348;2022-10-10T06:03:32;11.20;99.90
16523;DHT22;19889;52.546;13.348;2022-10-10T06:06:00;11.30;99.90
16523;DHT22;19889;52.546;13.348;2022-10-10T06:08:27;11.20;99.90
16523;DHT22;19889;52.546;13.348;2022-10-10T06:11:00;11.60;99.90
16523;DHT22;19889;52.546;13.348;2022-10-10T06:13:28;11.20;99.90
16523;DHT22;19889;52.546;13.348;2022-10-10T06:15:54;11.20;99.90
16523;DHT22;19889;52.546;13.348;2022-10-10T06:18:21;11.20;99.90
16523;DHT22;19889;52.546;13.348;2022-10-10T06:20:48;11.20;99.90
16523;DHT22;19889;52.546;13.348;2022-10-10T06:23:15;11.20;99.90
16523;DHT22;19889;52.546;13.348;2022-10-10T06:25:42;11.30;99.90
16523;DHT22;19889;52.546;13.348;2022-10-10T06:28:10;11.30;99.90
16523;DHT22;19889;52.546;13.348;2022-10-10T06:30:41;11.30;99.90
16523;DHT22;19889;52.546;13.348;2022-10-10T06:33:08;11.30;99.90
16523;DHT22;19889;52.546;13.348;2022-10-10T06:35:38;11.20;99.90
16523;DHT22;19889;52.546;13.348;2022-10-10T06:38:05;11.20;99.90
16523;DHT22;19889;52.546;13.348;2022-10-10T06:40:32;11.20;99.90
16523;DHT22;19889;52.546;13.348;2022-10-10T06:42:58;11.20;99.90
16523;DHT22;19889;52.546;13.348;2022-10-10T06:45:26;11.20;99.90
16523;DHT22;19889;52.546;13.348;2022-10-10T06:47:54;11.20;99.90
16523;DHT22;19889;52.546;13.348;2022-10-10T06:50:20;11.20;99.90
16523;DHT22;19889;52.546;13.348;2022-10-10T06:52:47;11.20;99.90
16523;DHT22;19889;52.546;13.348;2022-10-10T06:55:14;11.20;99.90
16523;DHT22;19889;52.546;13.348;2022-10-10T06:57:41;11.20;99.90
16523;DHT22;19889;52.546;13.348;2022-10-10T07:00:10;11.20;99.90
16523;DHT22;19889;52.546;13.348;2022-10-10T07:02:39;11.20;99.90
16523;DHT22;19889;52.546;13.348;2022-10-10T07:05:08;11.20;99.90
16523;DHT22;19889;52.546;13.348;2022-10-10T07:07:36;11.20;99.90
16523;DHT22;19889;52.546;13.348;2022-10-10T07:10:03;11.20;99.90
16523;DHT22;19889;52.546;13.348;2022-10-10T07:12:30;11.20;99.90
16523;DHT22;19889;52.546;13.348;2022-10-10T07:14:57;11.20;99.90
16523;DHT22;19889;52.546;13.348;2022-10-10T07:17:24;11.30;99.90
16523;DHT22;19889;52.546;13.348;2022-10-10T07:19:52;11.30;99.90
16523;DHT22;19889;52.546;13.348;2022-10-10T07:22:19;11.30;99.90
16523;DHT22;19889;52.546;13.348;2022-10-10T07:24:45;11.30;99.90
16523;DHT22;19889;52.546;13.348;2022-10-10T07:27:12;11.30;99.90
16523;DHT22;19889;52.546;13.348;2022-10-10T07:29:39;11.30;99.90
16523;DHT22;19889;52.546;13.348;2022-10-10T07:32:06;11.40;99.90
16523;DHT22;19889;52.546;13.348;2022-10-10T07:34:34;11.40;99.90
16523;DHT22;19889;52.546;13.348;2022-10-10T07:37:02;11.40;99.90
16523;DHT22;19889;52.546;13.348;2022-10-10T07:39:29;11.40;99.90
16523;DHT22;19889;52.546;13.348;2022-10-10T07:41:56;11.40;99.90
16523;DHT22;19889;52.546;13.348;2022-10-10T07:44:23;11.40;99.90
16523;DHT22;19889;52.546;13.348;2022-10-10T07:46:50;11.50;99.90
16523;DHT22;19889;52.546;13.348;2022-10-10T07:49:16;11.50;99.90
16523;DHT22;19889;52.546;13.348;2022-10-10T07:51:43;11.50;99.90
16523;DHT22;19889;52.546;13.348;2022-10-10T07:54:11;11.50;99.90
16523;DHT22;19889;52.546;13.348;2022-10-10T07:56:38;11.50;99.90
16523;DHT22;19889;52.546;13.348;2022-10-10T07:59:05;11.50;99.90
16523;DHT22;19889;52.546;13.348;2022-10-10T08:01:32;11.60;99.90
16523;DHT22;19889;52.546;13.348;2022-10-10T08:03:58;11.60;99.90
16523;DHT22;19889;52.546;13.348;2022-10-10T08:06:25;11.60;99.90
16523;DHT22;19889;52.546;13.348;2022-10-10T08:08:52;11.70;99.90
16523;DHT22;19889;52.546;13.348;2022-10-10T08:11:21;11.60;99.90
16523;DHT22;19889;52.546;13.348;2022-10-10T08:13:48;11.70;99.90
16523;DHT22;19889;52.546;13.348;2022-10-10T08:16:15;11.70;99.90
16523;DHT22;19889;52.546;13.348;2022-10-10T08:18:42;11.70;99.90
16523;DHT22;19889;52.546;13.348;2022-10-10T08:21:11;11.30;99.90
16523;DHT22;19889;52.546;13.348;2022-10-10T08:23:38;11.80;99.90
16523;DHT22;19889;52.546;13.348;2022-10-10T08:26:07;11.80;99.90
16523;DHT22;19889;52.546;13.348;2022-10-10T08:28:37;11.90;99.90
16523;DHT22;19889;52.546;13.348;2022-10-10T08:31:04;12.00;99.90
16523;DHT22;19889;52.546;13.348;2022-10-10T08:33:31;12.00;99.90
16523;DHT22;19889;52.546;13.348;2022-10-10T08:36:02;12.10;99.90
16523;DHT22;19889;52.546;13.348;2022-10-10T08:38:29;12.10;99.90
16523;DHT22;19889;52.546;13.348;2022-10-10T08:40:56;12.10;99.90
16523;DHT22;19889;52.546;13.348;2022-10-10T08:43:29;12.10;99.90
16523;DHT22;19889;52.546;13.348;2022-10-10T08:46:03;10.80;99.90
16523;DHT22;19889;52.546;13.348;2022-10-10T08:48:33;12.20;99.90
16523;DHT22;19889;52.546;13.348;2022-10-10T08:51:04;12.20;99.90
16523;DHT22;19889;52.546;13.348;2022-10-10T08:53:34;12.30;99.90
16523;DHT22;19889;52.546;13.348;2022-10-10T08:56:05;12.30;99.90
16523;DHT22;19889;52.546;13.348;2022-10-10T08:58:35;12.30;99.90
16523;DHT22;19889;52.546;13.348;2022-10-10T09:01:09;12.30;99.90
16523;DHT22;19889;52.546;13.348;2022-10-10T09:03:40;12.40;99.90
16523;DHT22;19889;52.546;13.348;2022-10-10T09:06:22;12.50;99.90
16523;DHT22;19889;52.546;13.348;2022-10-10T09:08:56;12.50;99.90
16523;DHT22;19889;52.546;13.348;2022-10-10T09:11:38;12.50;99.90
16523;DHT22;19889;52.546;13.348;2022-10-10T09:14:17;12.50;99.90
16523;DHT22;19889;52.546;13.348;2022-10-10T09:16:52;12.50;99.90
16523;DHT22;19889;52.546;13.348;2022-10-10T09:19:29;12.60;99.90
16523;DHT22;19889;52.546;13.348;2022-10-10T09:22:03;12.70;99.90
16523;DHT22;19889;52.546;13.348;2022-10-10T09:24:33;12.60;99.90
16523;DHT22;19889;52.546;13.348;2022-10-10T09:27:04;12.70;99.90
16523;DHT22;19889;52.546;13.348;2022-10-10T09:29:36;12.70;99.90
16523;DHT22;19889;52.546;13.348;2022-10-10T09:32:12;12.70;99.90
16523;DHT22;19889;52.546;13.348;2022-10-10T09:34:44;12.80;99.90
16523;DHT22;19889;52.546;13.348;2022-10-10T09:37:15;12.90;99.90
16523;DHT22;19889;52.546;13.348;2022-10-10T09:39:46;12.90;99.90
16523;DHT22;19889;52.546;13.348;2022-10-10T09:42:16;12.90;99.90
16523;DHT22;19889;52.546;13.348;2022-10-10T09:44:44;13.00;99.90
16523;DHT22;19889;52.546;13.348;2022-10-10T09:47:13;13.10;99.90
16523;DHT22;19889;52.546;13.348;2022-10-10T09:49:41;13.10;99.90
16523;DHT22;19889;52.546;13.348;2022-10-10T09:52:24;13.20;99.90
16523;DHT22;19889;52.546;13.348;2022-10-10T09:54:55;13.20;99.90
16523;DHT22;19889;52.546;13.348;2022-10-10T09:57:26;13.30;99.90
16523;DHT22;19889;52.546;13.348;2022-10-10T09:59:54;13.30;99.90
16523;DHT22;19889;52.546;13.348;2022-10-10T10:02:23;13.40;99.90
16523;DHT22;19889;52.546;13.348;2022-10-10T10:04:51;13.50;99.90
16523;DHT22;19889;52.546;13.348;2022-10-10T10:07:22;13.60;99.90
16523;DHT22;19889;52.546;13.348;2022-10-10T10:09:50;13.60;99.90
16523;DHT22;19889;52.546;13.348;2022-10-10T10:12:21;13.60;99.90
16523;DHT22;19889;52.546;13.348;2022-10-10T10:14:50;13.70;99.90
16523;DHT22;19889;52.546;13.348;2022-10-10T10:17:23;13.70;99.90
16523;DHT22;19889;52.546;13.348;2022-10-10T10:19:50;13.70;99.90
16523;DHT22;19889;52.546;13.348;2022-10-10T10:22:29;13.70;99.90
16523;DHT22;19889;52.546;13.348;2022-10-10T10:24:57;13.80;99.90
16523;DHT22;19889;52.546;13.348;2022-10-10T10:27:26;13.80;99.90
16523;DHT22;19889;52.546;13.348;2022-10-10T10:29:54;13.90;99.90
16523;DHT22;19889;52.546;13.348;2022-10-10T10:32:40;13.90;99.90
16523;DHT22;19889;52.546;13.348;2022-10-10T10:35:23;13.90;99.90
16523;DHT22;19889;52.546;13.348;2022-10-10T10:38:10;14.00;99.90
16523;DHT22;19889;52.546;13.348;2022-10-10T10:40:41;14.10;99.90
16523;DHT22;19889;52.546;13.348;2022-10-10T10:43:31;14.10;99.90
16523;DHT22;19889;52.546;13.348;2022-10-10T10:46:08;14.10;99.90
16523;DHT22;19889;52.546;13.348;2022-10-10T10:48:42;14.10;99.90
16523;DHT22;19889;52.546;13.348;2022-10-10T10:54:44;14.20;99.90
16523;DHT22;19889;52.546;13.348;2022-10-10T10:57:16;14.20;99.90
16523;DHT22;19889;52.546;13.348;2022-10-10T10:59:49;14.20;99.90
16523;DHT22;19889;52.546;13.348;2022-10-10T11:02:39;14.20;99.90
16523;DHT22;19889;52.546;13.348;2022-10-10T11:05:32;14.20;99.90
16523;DHT22;19889;52.546;13.348;2022-10-10T11:08:17;14.30;99.90
16523;DHT22;19889;52.546;13.348;2022-10-10T11:10:53;14.40;99.90
16523;DHT22;19889;52.546;13.348;2022-10-10T11:13:27;14.30;99.90
16523;DHT22;19889;52.546;13.348;2022-10-10T11:16:00;14.40;99.90
16523;DHT22;19889;52.546;13.348;2022-10-10T11:18:32;14.40;99.90
16523;DHT22;19889;52.546;13.348;2022-10-10T11:21:05;14.40;99.90
16523;DHT22;19889;52.546;13.348;2022-10-10T11:23:37;14.50;99.90
16523;DHT22;19889;52.546;13.348;2022-10-10T11:26:07;14.50;99.90
16523;DHT22;19889;52.546;13.348;2022-10-10T11:28:38;14.50;99.90
16523;DHT22;19889;52.546;13.348;2022-10-10T11:31:10;14.50;99.90
16523;DHT22;19889;52.546;13.348;2022-10-10T11:33:42;14.60;99.90
16523;DHT22;19889;52.546;13.348;2022-10-10T11:36:15;14.60;99.90
16523;DHT22;19889;52.546;13.348;2022-10-10T11:38:47;14.60;99.90
16523;DHT22;19889;52.546;13.348;2022-10-10T11:41:17;14.70;99.90
16523;DHT22;19889;52.546;13.348;2022-10-10T11:43:47;14.70;99.90
16523;DHT22;19889;52.546;13.348;2022-10-10T11:46:24;14.70;99.90
16523;DHT22;19889;52.546;13.348;2022-10-10T11:48:57;14.70;99.90
16523;DHT22;19889;52.546;13.348;2022-10-10T11:51:35;14.80;99.90
16523;DHT22;19889;52.546;13.348;2022-10-10T11:54:08;14.80;99.90
16523;DHT22;19889;52.546;13.348;2022-10-10T11:56:41;14.80;99.90
16523;DHT22;19889;52.546;13.348;2022-10-10T11:59:16;14.80;99.90
16523;DHT22;19889;52.546;13.348;2022-10-10T12:01:50;14.90;99.90
16523;DHT22;19889;52.546;13.348;2022-10-10T12:04:17;14.90;99.90
16523;DHT22;19889;52.546;13.348;2022-10-10T12:06:49;15.00;99.90
16523;DHT22;19889;52.546;13.348;2022-10-10T12:09:21;15.00;99.90
16523;DHT22;19889;52.546;13.348;2022-10-10T12:11:52;15.10;99.90
16523;DHT22;19889;52.546;13.348;2022-10-10T12:14:21;15.10;99.90
16523;DHT22;19889;52.546;13.348;2022-10-10T12:16:51;15.20;99.90
16523;DHT22;19889;52.546;13.348;2022-10-10T12:19:19;15.20;99.90
16523;DHT22;19889;52.546;13.348;2022-10-10T12:21:59;15.30;99.90
16523;DHT22;19889;52.546;13.348;2022-10-10T12:24:28;15.30;99.90
16523;DHT22;19889;52.546;13.348;2022-10-10T12:27:40;15.30;99.90
16523;DHT22;19889;52.546;13.348;2022-10-10T12:30:28;15.40;99.90
16523;DHT22;19889;52.546;13.348;2022-10-10T12:32:56;15.40;99.90
16523;DHT22;19889;52.546;13.348;2022-10-10T12:35:36;15.40;99.90
16523;DHT22;19889;52.546;13.348;2022-10-10T12:38:11;14.00;99.90
16523;DHT22;19889;52.546;13.348;2022-10-10T12:41:03;15.50;99.90
16523;DHT22;19889;52.546;13.348;2022-10-10T12:43:40;15.50;99.90
16523;DHT22;19889;52.546;13.348;2022-10-10T12:46:20;15.50;99.90
16523;DHT22;19889;52.546;13.348;2022-10-10T12:51:38;15.60;99.90
16523;DHT22;19889;52.546;13.348;2022-10-10T12:54:07;15.60;99.90
16523;DHT22;19889;52.546;13.348;2022-10-10T12:56:46;15.60;99.90
16523;DHT22;19889;52.546;13.348;2022-10-10T12:59:18;15.70;99.90
16523;DHT22;19889;52.546;13.348;2022-10-10T13:01:50;15.70;99.90
16523;DHT22;19889;52.546;13.348;2022-10-10T13:04:18;15.70;99.90
16523;DHT22;19889;52.546;13.348;2022-10-10T13:06:46;16.10;99.90
16523;DHT22;19889;52.546;13.348;2022-10-10T13:09:18;15.80;99.90
16523;DHT22;19889;52.546;13.348;2022-10-10T13:11:53;15.80;99.90
16523;DHT22;19889;52.546;13.348;2022-10-10T13:14:21;15.80;99.90
16523;DHT22;19889;52.546;13.348;2022-10-10T13:16:47;15.90;99.90
16523;DHT22;19889;52.546;13.348;2022-10-10T13:19:20;15.90;99.90
16523;DHT22;19889;52.546;13.348;2022-10-10T13:21:49;15.90;99.90
16523;DHT22;19889;52.546;13.348;2022-10-10T13:24:28;15.90;99.90
16523;DHT22;19889;52.546;13.348;2022-10-10T13:26:55;16.00;99.90
16523;DHT22;19889;52.546;13.348;2022-10-10T13:29:24;17.80;99.90
16523;DHT22;19889;52.546;13.348;2022-10-10T13:31:54;16.00;99.90
16523;DHT22;19889;52.546;13.348;2022-10-10T13:34:25;16.00;99.90
16523;DHT22;19889;52.546;13.348;2022-10-10T13:36:55;16.00;99.90
16523;DHT22;19889;52.546;13.348;2022-10-10T13:39:24;16.00;99.90
16523;DHT22;19889;52.546;13.348;2022-10-10T13:41:53;16.10;99.90
16523;DHT22;19889;52.546;13.348;2022-10-10T13:44:22;16.10;99.90
16523;DHT22;19889;52.546;13.348;2022-10-10T13:46:49;16.00;99.90
16523;DHT22;19889;52.546;13.348;2022-10-10T13:49:22;16.10;99.90
16523;DHT22;19889;52.546;13.348;2022-10-10T13:52:00;14.70;99.90
16523;DHT22;19889;52.546;13.348;2022-10-10T13:54:44;16.10;99.90
16523;DHT22;19889;52.546;13.348;2022-10-10T13:57:14;16.10;99.90
16523;DHT22;19889;52.546;13.348;2022-10-10T13:59:43;16.10;99.90
16523;DHT22;19889;52.546;13.348;2022-10-10T14:02:13;16.20;99.90
16523;DHT22;19889;52.546;13.348;2022-10-10T14:04:45;16.20;99.90
16523;DHT22;19889;52.546;13.348;2022-10-10T14:07:16;16.20;99.90
16523;DHT22;19889;52.546;13.348;2022-10-10T14:09:50;16.20;99.90
16523;DHT22;19889;52.546;13.348;2022-10-10T14:12:23;16.20;99.90
16523;DHT22;19889;52.546;13.348;2022-10-10T14:14:52;16.20;99.90
16523;DHT22;19889;52.546;13.348;2022-10-10T14:17:19;16.20;99.90
16523;DHT22;19889;52.546;13.348;2022-10-10T14:19:46;16.20;99.90
16523;DHT22;19889;52.546;13.348;2022-10-10T14:22:14;16.20;99.90
16523;DHT22;19889;52.546;13.348;2022-10-10T14:24:41;16.20;99.90
16523;DHT22;19889;52.546;13.348;2022-10-10T14:27:15;16.30;99.90
16523;DHT22;19889;52.546;13.348;2022-10-10T14:29:42;16.30;99.90
16523;DHT22;19889;52.546;13.348;2022-10-10T14:32:09;16.30;99.90
16523;DHT22;19889;52.546;13.348;2022-10-10T14:34:36;16.30;99.90
16523;DHT22;19889;52.546;13.348;2022-10-10T14:37:03;16.30;99.90
16523;DHT22;19889;52.546;13.348;2022-10-10T14:39:30;16.30;99.90
16523;DHT22;19889;52.546;13.348;2022-10-10T14:41:59;16.40;99.90
16523;DHT22;19889;52.546;13.348;2022-10-10T14:44:27;16.40;99.90
16523;DHT22;19889;52.546;13.348;2022-10-10T14:46:54;16.30;99.90
16523;DHT22;19889;52.546;13.348;2022-10-10T14:49:21;16.30;99.90
16523;DHT22;19889;52.546;13.348;2022-10-10T14:51:48;16.40;99.90
16523;DHT22;19889;52.546;13.348;2022-10-10T14:54:15;16.30;99.90
16523;DHT22;19889;52.546;13.348;2022-10-10T14:56:42;16.30;99.90
16523;DHT22;19889;52.546;13.348;2022-10-10T14:59:15;16.40;99.90
16523;DHT22;19889;52.546;13.348;2022-10-10T15:01:43;16.40;99.90
16523;DHT22;19889;52.546;13.348;2022-10-10T15:04:10;16.40;99.90
16523;DHT22;19889;52.546;13.348;2022-10-10T15:06:37;16.40;99.90
16523;DHT22;19889;52.546;13.348;2022-10-10T15:09:04;16.40;99.90
16523;DHT22;19889;52.546;13.348;2022-10-10T15:11:31;16.40;99.90
16523;DHT22;19889;52.546;13.348;2022-10-10T15:13:57;16.40;99.90
16523;DHT22;19889;52.546;13.348;2022-10-10T15:16:24;16.40;99.90
16523;DHT22;19889;52.546;13.348;2022-10-10T15:18:52;16.40;99.90
16523;DHT22;19889;52.546;13.348;2022-10-10T15:21:19;16.40;99.90
16523;DHT22;19889;52.546;13.348;2022-10-10T15:23:46;16.40;99.90
16523;DHT22;19889;52.546;13.348;2022-10-10T15:26:13;16.40;99.90
16523;DHT22;19889;52.546;13.348;2022-10-10T15:28:40;16.40;99.90
16523;DHT22;19889;52.546;13.348;2022-10-10T15:31:07;16.40;99.90
16523;DHT22;19889;52.546;13.348;2022-10-10T15:33:34;16.40;99.90
16523;DHT22;19889;52.546;13.348;2022-10-10T15:36:04;16.40;99.90
16523;DHT22;19889;52.546;13.348;2022-10-10T15:38:33;16.40;99.90